createdAt,value
2022-12-08T00:01:15.470Z,10.33
2022-12-08T00:03:42.807Z,9.90
2022-12-08T00:07:01.165Z,10.03
2022-12-08T00:09:38.256Z,10.70
2022-12-08T00:12:11.699Z,10.37
2022-12-08T00:14:43.699Z,9.67
2022-12-08T00:17:12.499Z,9.53
2022-12-08T00:19:40.430Z,10.17
2022-12-08T00:22:08.254Z,10.33
2022-12-08T00:24:39.440Z,9.90
2022-12-08T00:27:08.419Z,10.27
2022-12-08T00:29:35.179Z,10.90
2022-12-08T00:32:02.005Z,10.20
2022-12-08T00:34:28.799Z,10.10
2022-12-08T00:36:55.474Z,10.83
2022-12-08T00:39:22.312Z,11.83
2022-12-08T00:42:07.823Z,11.23
2022-12-08T00:44:34.507Z,11.40
2022-12-08T00:47:01.222Z,11.07
2022-12-08T00:49:27.927Z,12.13
2022-12-08T00:51:54.939Z,11.87
2022-12-08T00:54:23.064Z,11.73
2022-12-08T00:56:49.901Z,12.20
2022-12-08T00:59:16.753Z,12.83
2022-12-08T01:01:47.234Z,11.70
2022-12-08T01:04:16.126Z,13.60
2022-12-08T01:06:43.909Z,12.27
2022-12-08T01:09:12.851Z,12.90
2022-12-08T01:11:39.542Z,13.43
2022-12-08T01:14:06.226Z,13.23
2022-12-08T01:16:35.583Z,14.23
2022-12-08T01:19:03.305Z,15.83
2022-12-08T01:21:30.087Z,16.50
2022-12-08T01:23:59.958Z,14.90
2022-12-08T01:26:26.739Z,15.40
2022-12-08T01:28:53.430Z,15.13
2022-12-08T01:31:21.596Z,14.63
2022-12-08T01:33:48.586Z,15.07
2022-12-08T01:36:29.242Z,15.57
2022-12-08T01:38:59.126Z,15.67
2022-12-08T01:41:28.515Z,15.40
2022-12-08T01:44:24.345Z,16.53
2022-12-08T01:46:53.543Z,17.17
2022-12-08T01:49:28.314Z,16.30
2022-12-08T01:52:10.342Z,16.30
2022-12-08T01:55:02.447Z,16.73
2022-12-08T01:57:43.423Z,17.07
2022-12-08T02:00:15.449Z,17.33
2022-12-08T02:03:02.090Z,17.17
2022-12-08T02:05:33.134Z,18.77
2022-12-08T02:08:04.366Z,17.77
2022-12-08T02:10:34.806Z,18.27
2022-12-08T02:13:03.287Z,17.97
2022-12-08T02:15:47.428Z,18.83
2022-12-08T02:18:28.277Z,18.73
2022-12-08T02:21:05.930Z,19.30
2022-12-08T02:23:55.823Z,19.17
2022-12-08T02:26:45.652Z,19.50
2022-12-08T02:29:36.375Z,18.50
2022-12-08T02:32:33.943Z,19.10
2022-12-08T02:38:53.980Z,17.97
2022-12-08T02:41:45.544Z,18.50
2022-12-08T02:44:22.754Z,16.93
2022-12-08T02:47:09.203Z,15.70
2022-12-08T02:49:36.537Z,14.80
2022-12-08T02:52:12.040Z,15.13
2022-12-08T02:55:02.438Z,14.57
2022-12-08T02:58:06.897Z,14.20
2022-12-08T03:00:57.010Z,13.67
2022-12-08T03:03:32.818Z,15.00
2022-12-08T03:06:50.824Z,14.37
2022-12-08T03:09:21.832Z,12.57
2022-12-08T03:12:12.620Z,13.43
2022-12-08T03:14:43.191Z,14.53
2022-12-08T03:17:15.779Z,13.97
2022-12-08T03:19:43.809Z,13.50
2022-12-08T03:22:13.643Z,12.43
2022-12-08T03:24:43.516Z,13.80
2022-12-08T03:27:14.983Z,13.63
2022-12-08T03:29:41.785Z,13.30
2022-12-08T03:32:29.889Z,12.93
2022-12-08T03:34:59.121Z,12.97
2022-12-08T03:37:27.500Z,14.23
2022-12-08T03:39:54.306Z,14.23
2022-12-08T03:42:21.059Z,14.70
2022-12-08T03:44:47.726Z,14.63
2022-12-08T03:47:14.425Z,15.53
2022-12-08T03:49:41.069Z,14.40
2022-12-08T03:52:08.824Z,14.30
2022-12-08T03:54:35.501Z,14.77
2022-12-08T03:57:02.183Z,15.13
2022-12-08T03:59:28.979Z,13.63
2022-12-08T04:01:55.703Z,14.57
2022-12-08T04:04:22.736Z,15.07
2022-12-08T04:06:50.517Z,15.20
2022-12-08T04:09:17.471Z,14.20
2022-12-08T04:11:44.192Z,14.37
2022-12-08T04:14:10.896Z,14.70
2022-12-08T04:16:37.701Z,14.17
2022-12-08T04:19:04.519Z,14.70
2022-12-08T04:21:31.209Z,14.60
2022-12-08T04:24:01.318Z,15.37
2022-12-08T04:26:28.734Z,13.57
2022-12-08T04:28:55.442Z,13.00
2022-12-08T04:31:22.323Z,14.20
2022-12-08T04:33:50.094Z,13.03
2022-12-08T04:36:16.793Z,12.83
2022-12-08T04:38:43.621Z,13.53
2022-12-08T04:41:10.661Z,13.03
2022-12-08T04:43:37.412Z,13.60
2022-12-08T04:46:08.785Z,13.00
2022-12-08T04:48:37.946Z,11.67
2022-12-08T04:51:05.473Z,9.27
2022-12-08T04:53:32.335Z,9.47
2022-12-08T04:55:59.126Z,9.67
2022-12-08T04:58:25.879Z,8.80
2022-12-08T05:00:52.647Z,9.90
2022-12-08T05:03:23.829Z,9.37
2022-12-08T05:05:54.908Z,9.23
2022-12-08T05:08:21.787Z,9.53
2022-12-08T05:10:48.515Z,9.67
2022-12-08T05:13:15.232Z,9.90
2022-12-08T05:15:41.932Z,10.23
2022-12-08T05:18:08.683Z,10.10
2022-12-08T05:20:36.067Z,10.83
2022-12-08T05:23:03.113Z,10.03
2022-12-08T05:25:29.851Z,11.27
2022-12-08T05:28:17.656Z,10.70
2022-12-08T05:30:43.217Z,10.07
2022-12-08T05:33:11.063Z,10.50
2022-12-08T05:35:37.808Z,10.37
2022-12-08T05:38:05.122Z,9.63
2022-12-08T05:40:31.873Z,9.10
2022-12-08T05:42:58.539Z,9.27
2022-12-08T05:45:25.258Z,8.30
2022-12-08T05:47:53.718Z,7.77
2022-12-08T05:50:20.460Z,7.50
2022-12-08T05:52:47.152Z,7.57
2022-12-08T05:55:13.858Z,6.63
2022-12-08T05:57:40.786Z,7.03
2022-12-08T06:00:10.618Z,6.87
2022-12-08T06:02:37.418Z,6.90
2022-12-08T06:05:04.442Z,6.80
2022-12-08T06:07:31.178Z,6.67
2022-12-08T06:09:57.829Z,7.03
2022-12-08T06:12:24.576Z,6.53
2022-12-08T06:14:51.302Z,6.37
2022-12-08T06:17:18.058Z,6.27
2022-12-08T06:19:44.702Z,5.77
2022-12-08T06:22:11.428Z,5.33
2022-12-08T06:24:38.096Z,5.73
2022-12-08T06:27:04.836Z,6.10
2022-12-08T06:29:34.256Z,6.20
2022-12-08T06:32:00.972Z,5.03
2022-12-08T06:34:27.754Z,4.77
2022-12-08T06:36:54.432Z,4.87
2022-12-08T06:39:21.105Z,5.00
2022-12-08T06:42:06.594Z,4.23
2022-12-08T06:44:33.260Z,4.10
2022-12-08T06:46:59.926Z,4.10
2022-12-08T06:49:26.624Z,4.50
2022-12-08T06:51:53.336Z,4.70
2022-12-08T06:54:19.994Z,4.80
2022-12-08T06:56:46.691Z,4.80
2022-12-08T06:59:13.436Z,4.60
2022-12-08T07:01:40.201Z,5.10
2022-12-08T07:04:06.955Z,5.30
2022-12-08T07:06:33.615Z,5.33
2022-12-08T07:09:00.346Z,5.30
2022-12-08T07:11:27.172Z,5.70
2022-12-08T07:13:56.915Z,5.80
2022-12-08T07:16:24.539Z,6.20
2022-12-08T07:18:51.309Z,5.73
2022-12-08T07:21:18.188Z,5.87
2022-12-08T07:23:54.442Z,6.27
2022-12-08T07:26:24.408Z,6.80
2022-12-08T07:28:51.071Z,7.07
2022-12-08T07:31:23.839Z,8.57
2022-12-08T07:33:54.048Z,7.30
2022-12-08T07:36:21.726Z,7.80
2022-12-08T07:38:48.990Z,7.47
2022-12-08T07:41:18.333Z,7.93
2022-12-08T07:43:45.474Z,8.70
2022-12-08T07:46:18.148Z,9.47
2022-12-08T07:48:45.151Z,7.63
2022-12-08T07:51:13.745Z,8.60
2022-12-08T07:53:51.582Z,9.00
2022-12-08T07:56:20.400Z,9.97
2022-12-08T07:58:47.147Z,8.60
2022-12-08T08:01:28.626Z,8.97
2022-12-08T08:03:57.621Z,7.47
2022-12-08T08:06:24.936Z,8.17
2022-12-08T08:08:51.681Z,6.60
2022-12-08T08:11:21.230Z,7.23
2022-12-08T08:13:48.355Z,6.90
2022-12-08T08:16:15.278Z,7.80
2022-12-08T08:18:43.456Z,8.87
2022-12-08T08:21:43.194Z,8.67
2022-12-08T08:23:56.878Z,7.43
2022-12-08T08:26:23.553Z,7.77
2022-12-08T08:28:50.246Z,7.53
2022-12-08T08:31:17.059Z,8.47
2022-12-08T08:33:43.776Z,7.47
2022-12-08T08:36:10.969Z,6.97
2022-12-08T08:38:42.736Z,7.37
2022-12-08T08:41:10.663Z,7.53
2022-12-08T08:43:38.761Z,7.63
2022-12-08T08:46:07.056Z,7.10
2022-12-08T08:48:34.379Z,6.60
2022-12-08T08:51:11.811Z,7.77
2022-12-08T08:53:38.648Z,6.67
2022-12-08T08:56:13.382Z,6.97
2022-12-08T08:58:40.457Z,7.13
2022-12-08T09:01:07.196Z,6.67
2022-12-08T09:03:33.882Z,7.17
2022-12-08T09:06:00.670Z,7.40
2022-12-08T09:08:27.440Z,7.60
2022-12-08T09:10:54.822Z,7.27
2022-12-08T09:13:22.298Z,7.30
2022-12-08T09:15:49.194Z,7.57
2022-12-08T09:18:15.913Z,6.63
2022-12-08T09:20:42.675Z,7.87
2022-12-08T09:23:09.372Z,7.10
2022-12-08T09:25:36.682Z,6.27
2022-12-08T09:28:03.398Z,6.50
2022-12-08T09:30:30.102Z,8.00
2022-12-08T09:32:56.832Z,6.10
2022-12-08T09:35:23.507Z,7.17
2022-12-08T09:37:50.227Z,6.83
2022-12-08T09:40:20.324Z,7.90
2022-12-08T09:43:03.130Z,6.50
2022-12-08T09:45:34.885Z,5.80
2022-12-08T09:48:19.932Z,5.77
2022-12-08T09:50:56.097Z,6.40
2022-12-08T09:53:36.258Z,5.93
2022-12-08T09:56:09.180Z,6.63
2022-12-08T09:58:46.043Z,5.27
2022-12-08T10:01:13.557Z,5.57
2022-12-08T10:03:40.735Z,6.80
2022-12-08T10:06:11.025Z,6.60
2022-12-08T10:09:02.875Z,6.07
2022-12-08T10:11:40.073Z,6.50
2022-12-08T10:14:20.942Z,5.97
2022-12-08T10:16:50.166Z,5.50
2022-12-08T10:19:26.759Z,5.87
2022-12-08T10:21:54.355Z,5.73
2022-12-08T10:24:33.551Z,6.13
2022-12-08T10:27:02.185Z,6.17
2022-12-08T10:29:28.909Z,6.43
2022-12-08T10:31:59.648Z,5.57
2022-12-08T10:34:26.684Z,5.10
2022-12-08T10:36:58.783Z,5.73
2022-12-08T10:39:36.457Z,5.07
2022-12-08T10:42:07.141Z,4.93
2022-12-08T10:44:38.364Z,4.70
2022-12-08T10:47:12.514Z,4.80
2022-12-08T10:49:39.227Z,4.90
2022-12-08T10:52:25.276Z,4.63
2022-12-08T10:54:55.028Z,4.47
2022-12-08T10:57:23.721Z,5.17
2022-12-08T10:59:50.449Z,4.90
2022-12-08T11:02:20.226Z,5.50
2022-12-08T11:04:47.311Z,4.30
2022-12-08T11:07:22.108Z,4.13
2022-12-08T11:09:53.075Z,3.77
2022-12-08T11:12:21.353Z,3.90
2022-12-08T11:14:59.046Z,3.80
2022-12-08T11:17:27.882Z,4.40
2022-12-08T11:20:06.534Z,3.60
2022-12-08T11:22:41.210Z,3.13
2022-12-08T11:25:07.911Z,3.50
2022-12-08T11:27:39.334Z,3.47
2022-12-08T11:30:26.055Z,2.97
2022-12-08T11:33:13.849Z,3.00
2022-12-08T11:35:43.849Z,2.93
2022-12-08T11:38:23.770Z,3.00
2022-12-08T11:41:01.359Z,3.20
2022-12-08T11:43:36.679Z,3.20
2022-12-08T11:46:38.359Z,2.60
2022-12-08T11:49:13.563Z,3.40
2022-12-08T11:51:48.597Z,4.40
2022-12-08T11:54:27.056Z,3.47
2022-12-08T11:56:57.420Z,6.97
2022-12-08T11:59:41.738Z,3.67
2022-12-08T12:02:17.375Z,5.67
2022-12-08T12:05:04.857Z,3.93
2022-12-08T12:07:54.248Z,3.37
2022-12-08T12:10:25.519Z,6.97
2022-12-08T12:12:52.143Z,5.23
2022-12-08T12:15:40.452Z,3.30
2022-12-08T12:18:47.866Z,3.87
2022-12-08T12:21:31.681Z,5.30
2022-12-08T12:24:06.891Z,3.97
2022-12-08T12:26:37.939Z,3.03
2022-12-08T12:29:17.163Z,3.80
2022-12-08T12:31:49.719Z,2.63
2022-12-08T12:34:29.169Z,2.83
2022-12-08T12:37:12.742Z,4.50
2022-12-08T12:39:55.337Z,3.40
2022-12-08T12:42:38.021Z,3.60
2022-12-08T12:45:17.515Z,2.63
2022-12-08T12:47:55.815Z,3.43
2022-12-08T12:50:35.121Z,2.50
2022-12-08T12:53:26.343Z,2.20
2022-12-08T12:56:00.219Z,2.87
2022-12-08T12:58:29.966Z,2.60
2022-12-08T13:01:08.587Z,2.77
2022-12-08T13:03:36.076Z,2.50
2022-12-08T13:06:03.223Z,2.60
2022-12-08T13:08:30.749Z,2.70
2022-12-08T13:11:04.796Z,3.10
2022-12-08T13:13:31.834Z,2.30
2022-12-08T13:16:17.169Z,2.73
2022-12-08T13:18:50.935Z,2.57
2022-12-08T13:21:20.833Z,2.43
2022-12-08T13:24:08.784Z,2.60
2022-12-08T13:26:47.422Z,2.23
2022-12-08T13:29:20.510Z,2.63
2022-12-08T13:31:52.066Z,2.70
2022-12-08T13:34:31.611Z,4.07
2022-12-08T13:37:25.348Z,3.00
2022-12-08T13:40:25.501Z,2.40
2022-12-08T13:43:09.951Z,2.20
2022-12-08T13:46:31.811Z,2.03
2022-12-08T13:50:22.970Z,1.90
2022-12-08T13:53:41.921Z,3.10
2022-12-08T13:55:13.625Z,2.53
2022-12-08T13:57:29.428Z,1.90
2022-12-08T14:00:20.246Z,2.50
2022-12-08T14:02:48.961Z,5.00
2022-12-08T14:05:19.828Z,4.80
2022-12-08T14:07:54.822Z,3.30
2022-12-08T14:10:31.855Z,2.27
2022-12-08T14:13:02.727Z,3.17
2022-12-08T14:15:37.597Z,5.97
2022-12-08T14:18:05.979Z,3.10
2022-12-08T14:20:51.771Z,4.83
2022-12-08T14:23:21.402Z,4.30
2022-12-08T14:25:48.566Z,5.73
2022-12-08T14:28:15.396Z,6.07
2022-12-08T14:30:42.340Z,3.77
2022-12-08T14:33:15.135Z,3.20
2022-12-08T14:35:41.834Z,2.63
2022-12-08T14:38:16.686Z,3.07
2022-12-08T14:41:07.776Z,2.83
2022-12-08T14:43:35.186Z,2.87
2022-12-08T14:46:22.775Z,3.10
2022-12-08T14:48:49.618Z,2.80
2022-12-08T14:51:19.355Z,3.07
2022-12-08T14:53:55.974Z,3.57
2022-12-08T14:56:27.959Z,2.90
2022-12-08T14:59:14.726Z,4.67
2022-12-08T15:01:43.101Z,3.43
2022-12-08T15:04:12.885Z,3.67
2022-12-08T15:07:07.782Z,3.60
2022-12-08T15:09:43.667Z,3.27
2022-12-08T15:12:13.118Z,3.00
2022-12-08T15:15:01.894Z,3.57
2022-12-08T15:17:40.520Z,6.40
2022-12-08T15:20:33.163Z,5.57
2022-12-08T15:23:01.915Z,6.47
2022-12-08T15:25:28.641Z,10.87
2022-12-08T15:27:57.043Z,9.93
2022-12-08T15:30:28.801Z,12.93
2022-12-08T15:32:56.428Z,5.27
2022-12-08T15:35:24.380Z,6.27
2022-12-08T15:37:51.174Z,7.60
2022-12-08T15:40:21.204Z,10.27
2022-12-08T15:42:48.878Z,8.57
2022-12-08T15:45:17.000Z,6.40
2022-12-08T15:47:44.788Z,6.80
2022-12-08T15:50:20.217Z,5.90
2022-12-08T15:52:47.546Z,6.17
2022-12-08T15:55:15.628Z,5.27
2022-12-08T15:58:44.543Z,10.30
2022-12-08T16:09:12.496Z,8.90
2022-12-08T16:12:08.357Z,11.17
2022-12-08T16:17:23.432Z,15.67
2022-12-08T16:19:50.119Z,10.63
2022-12-08T16:25:18.141Z,13.00
2022-12-08T16:30:34.023Z,10.97
2022-12-08T16:33:00.868Z,11.43
2022-12-08T16:35:27.735Z,15.60
2022-12-08T16:37:54.594Z,15.37
2022-12-08T16:40:21.592Z,14.50
2022-12-08T16:42:50.126Z,14.70
2022-12-08T16:45:22.371Z,12.63
2022-12-08T16:48:00.138Z,12.57
2022-12-08T16:50:32.657Z,11.53
2022-12-08T16:53:11.197Z,12.40
2022-12-08T16:55:38.904Z,13.07
2022-12-08T16:58:06.023Z,12.53
2022-12-08T17:00:37.306Z,13.03
2022-12-08T17:03:06.072Z,14.03
2022-12-08T17:05:32.864Z,13.13
2022-12-08T17:08:00.023Z,13.07
2022-12-08T17:10:30.336Z,14.57
2022-12-08T17:12:57.304Z,13.87
2022-12-08T17:15:25.761Z,13.93
2022-12-08T17:17:53.128Z,14.67
2022-12-08T17:20:23.436Z,20.00
2022-12-08T17:22:53.762Z,16.43
2022-12-08T17:25:20.568Z,15.57
2022-12-08T17:27:47.525Z,15.30
2022-12-08T17:30:15.795Z,14.07
2022-12-08T17:32:43.173Z,13.37
2022-12-08T17:35:10.570Z,11.70
2022-12-08T17:37:37.355Z,12.00
2022-12-08T17:40:05.148Z,10.83
2022-12-08T17:42:34.719Z,10.17
2022-12-08T17:45:01.405Z,11.10
2022-12-08T17:47:28.764Z,11.40
2022-12-08T17:49:56.053Z,11.53
2022-12-08T17:52:23.090Z,10.70
2022-12-08T17:54:49.769Z,10.90
2022-12-08T17:57:16.443Z,10.97
2022-12-08T17:59:43.145Z,11.13
2022-12-08T18:02:11.708Z,11.13
2022-12-08T18:04:38.553Z,11.40
2022-12-08T18:07:05.357Z,11.70
2022-12-08T18:09:32.722Z,11.03
2022-12-08T18:11:59.691Z,11.90
2022-12-08T18:14:26.451Z,12.33
2022-12-08T18:16:53.393Z,12.17
2022-12-08T18:19:20.346Z,12.67
2022-12-08T18:21:47.074Z,12.43
2022-12-08T18:24:19.662Z,12.23
2022-12-08T18:26:46.930Z,12.27
2022-12-08T18:29:13.741Z,12.93
2022-12-08T18:31:40.541Z,13.30
2022-12-08T18:34:07.201Z,12.70
2022-12-08T18:36:33.963Z,13.47
2022-12-08T18:39:03.458Z,14.70
2022-12-08T18:41:34.011Z,14.80
2022-12-08T18:44:00.699Z,14.90
2022-12-08T18:46:27.432Z,13.63
2022-12-08T18:48:54.290Z,13.90
2022-12-08T18:51:24.669Z,14.93
2022-12-08T18:53:52.283Z,14.43
2022-12-08T18:56:32.198Z,15.37
2022-12-08T18:59:03.921Z,15.83
2022-12-08T19:01:36.141Z,17.50
2022-12-08T19:06:53.384Z,17.27
2022-12-08T19:09:20.523Z,17.00
2022-12-08T19:11:47.273Z,17.67
2022-12-08T19:14:14.423Z,17.70
2022-12-08T19:16:41.204Z,18.00
2022-12-08T19:19:07.913Z,18.30
2022-12-08T19:21:34.724Z,17.93
2022-12-08T19:24:01.598Z,18.27
2022-12-08T19:26:28.689Z,17.70
2022-12-08T19:28:55.433Z,20.03
2022-12-08T19:31:22.283Z,18.30
2022-12-08T19:33:49.078Z,17.50
2022-12-08T19:36:18.294Z,18.53
2022-12-08T19:39:04.167Z,20.83
2022-12-08T19:41:49.883Z,20.40
2022-12-08T19:44:32.791Z,20.23
2022-12-08T19:47:00.300Z,21.40
2022-12-08T19:49:27.460Z,21.33
2022-12-08T19:51:54.223Z,21.43
2022-12-08T19:54:21.075Z,21.87
2022-12-08T19:56:48.016Z,19.60
2022-12-08T19:59:15.789Z,20.43
2022-12-08T20:01:44.124Z,21.17
2022-12-08T20:04:14.648Z,20.70
2022-12-08T20:06:42.133Z,21.27
2022-12-08T20:09:10.330Z,20.03
2022-12-08T20:11:38.076Z,19.97
2022-12-08T20:14:05.223Z,21.60
2022-12-08T20:16:32.339Z,20.33
2022-12-08T20:19:00.546Z,20.40
2022-12-08T20:21:27.314Z,22.63
2022-12-08T20:23:54.575Z,21.53
2022-12-08T20:26:22.726Z,20.10
2022-12-08T20:28:50.131Z,21.40
2022-12-08T20:31:24.675Z,21.93
2022-12-08T20:33:51.977Z,21.13
2022-12-08T20:36:20.803Z,20.93
2022-12-08T20:38:49.287Z,20.07
2022-12-08T20:41:16.631Z,20.60
2022-12-08T20:43:44.679Z,21.57
2022-12-08T20:46:14.291Z,22.63
2022-12-08T20:48:42.311Z,21.17
2022-12-08T20:51:11.982Z,21.30
2022-12-08T20:53:38.859Z,21.37
2022-12-08T20:56:05.782Z,21.73
2022-12-08T20:58:32.466Z,21.13
2022-12-08T21:01:08.947Z,21.97
2022-12-08T21:03:36.385Z,20.93
2022-12-08T21:06:03.528Z,20.90
2022-12-08T21:08:30.363Z,21.80
2022-12-08T21:10:57.337Z,21.07
2022-12-08T21:13:24.781Z,20.57
2022-12-08T21:15:51.629Z,20.17
2022-12-08T21:18:18.628Z,20.87
2022-12-08T21:20:45.518Z,20.03
2022-12-08T21:23:12.360Z,20.90
2022-12-08T21:25:44.942Z,21.13
2022-12-08T21:28:12.075Z,21.27
2022-12-08T21:30:43.144Z,22.00
2022-12-08T21:33:10.211Z,19.90
2022-12-08T21:35:37.281Z,20.73
2022-12-08T21:38:05.874Z,21.93
2022-12-08T21:40:35.222Z,20.47
2022-12-08T21:43:03.801Z,20.77
2022-12-08T21:45:30.888Z,21.43
2022-12-08T21:47:59.523Z,20.13
2022-12-08T21:50:27.593Z,21.30
2022-12-08T21:52:54.400Z,21.90
2022-12-08T21:55:22.726Z,20.77
2022-12-08T21:57:49.546Z,21.57
2022-12-08T22:00:17.720Z,21.70
2022-12-08T22:02:45.716Z,22.10
2022-12-08T22:05:12.781Z,21.87
2022-12-08T22:07:41.137Z,22.33
2022-12-08T22:10:10.401Z,20.47
2022-12-08T22:12:38.502Z,23.40
2022-12-08T22:15:06.859Z,22.33
2022-12-08T22:17:38.904Z,22.83
2022-12-08T22:20:07.873Z,24.47
2022-12-08T22:22:35.810Z,24.33
2022-12-08T22:25:04.519Z,23.63
2022-12-08T22:27:33.834Z,24.97
2022-12-08T22:30:00.741Z,25.23
2022-12-08T22:32:27.659Z,24.73
2022-12-08T22:34:54.664Z,24.17
2022-12-08T22:37:21.713Z,25.30
2022-12-08T22:39:48.506Z,25.37
2022-12-08T22:42:15.575Z,24.90
2022-12-08T22:44:42.384Z,24.80
2022-12-08T22:47:09.303Z,25.27
2022-12-08T22:49:36.883Z,26.57
2022-12-08T22:52:04.023Z,26.03
2022-12-08T22:54:31.042Z,26.07
2022-12-08T22:56:57.770Z,25.30
2022-12-08T22:59:24.919Z,26.80
2022-12-08T23:01:53.949Z,26.17
2022-12-08T23:04:20.920Z,26.70
2022-12-08T23:06:48.230Z,25.77
2022-12-08T23:09:15.284Z,27.33
2022-12-08T23:11:42.822Z,26.97
2022-12-08T23:14:09.573Z,28.53
2022-12-08T23:16:36.928Z,30.03
2022-12-08T23:19:03.857Z,28.83
2022-12-08T23:21:30.631Z,29.53
2022-12-08T23:23:57.364Z,30.23
2022-12-08T23:26:26.709Z,27.60
2022-12-08T23:28:53.728Z,27.17
2022-12-08T23:31:20.925Z,29.50
2022-12-08T23:33:47.897Z,28.77
2022-12-08T23:36:16.057Z,29.03
2022-12-08T23:38:43.185Z,28.03
2022-12-08T23:41:12.321Z,28.93
2022-12-08T23:43:48.148Z,28.57
2022-12-08T23:46:16.882Z,28.53
2022-12-08T23:48:44.208Z,28.43
2022-12-08T23:51:12.099Z,28.50
2022-12-08T23:53:39.091Z,29.63
2022-12-08T23:56:09.051Z,29.37
2022-12-08T23:58:36.640Z,28.13
